Terminal Aerodrome Forecast
Issued by NWS Albany, NY

Home | Current Version | Previous Version | Text Only | Print | Product List | Glossary On
Versions: 1 2 3 4 5 6 7 8 9 10 11 12 13 14 15 16 17 18 19 20 21
000
FTUS41 KALY 301300 AAA
TAFGFL
TAF AMD
KGFL 301308Z 3013/3112 23005KT 5SM -SN OVC020
      TEMPO 3013/3016 1 1/2SM -SN OVC010
     FM301600 32009KT 4SM -SHSN BKN015 BKN035
     FM302000 34010G20KT P6SM VCSH BKN025 BKN035
     FM310600 33010KT P6SM SCT020=

USA.gov is the U.S. government's official web portal to all federal, state and local government web resources and services.